Time;durP1;ratioP1;P1;durP2;ratioP2;P2;SDS_P1;SDS_P2;PMS_P1;PMS_P2;Temp;Humidity;BMP_temperature;BMP_pressure;BME280_temperature;BME280_humidity;BME280_pressure;Samples;Min_cycle;Max_cycle;Signal;HPM_P1;HPM_P2
2021/11/26 00:00:58;;;;;;;5.13;1.00;;;;;;;;;;5111333;28;20036;-63
2021/11/26 00:03:24;;;;;;;8.85;1.52;;;;;;;;;;5111437;28;20387;-62
2021/11/26 00:05:51;;;;;;;4.78;0.90;;;;;;;;;;5109493;28;20402;-63
2021/11/26 00:08:17;;;;;;;5.78;0.70;;;;;;;;;;5109620;28;20050;-63
2021/11/26 00:10:43;;;;;;;3.58;0.77;;;;;;;;;;5110413;28;20046;-63
2021/11/26 00:13:11;;;;;;;6.90;1.20;;;;;;;;;;5090923;28;20036;-63
2021/11/26 00:15:39;;;;;;;3.95;0.70;;;;;;;;;;5112213;28;20052;-62
2021/11/26 00:18:18;;;;;;;2.75;0.57;;;;;;;;;;5107685;28;20399;-62
2021/11/26 00:20:44;;;;;;;5.05;0.77;;;;;;;;;;5108422;28;20043;-62
2021/11/26 00:23:12;;;;;;;8.48;1.00;;;;;;;;;;5108136;28;20039;-62
2021/11/26 00:25:38;;;;;;;8.50;1.00;;;;;;;;;;5082235;28;20483;-62
2021/11/26 00:28:04;;;;;;;9.18;1.35;;;;;;;;;;5108075;28;20054;-62
2021/11/26 00:30:31;;;;;;;9.38;1.27;;;;;;;;;;5110842;27;20028;-62
2021/11/26 00:32:57;;;;;;;10.73;1.75;;;;;;;;;;5106617;28;20032;-62
2021/11/26 00:35:24;;;;;;;10.98;1.27;;;;;;;;;;5106854;27;20122;-62
2021/11/26 00:37:50;;;;;;;6.78;1.20;;;;;;;;;;5109911;28;20048;-62
2021/11/26 00:40:17;;;;;;;7.13;0.80;;;;;;;;;;5110479;27;20088;-63
2021/11/26 00:42:43;;;;;;;6.00;0.90;;;;;;;;;;5107064;28;20042;-62
2021/11/26 00:45:11;;;;;;;4.20;0.63;;;;;;;;;;5110350;27;20050;-63
2021/11/26 00:47:37;;;;;;;7.15;0.63;;;;;;;;;;5086236;28;20054;-62
2021/11/26 00:50:04;;;;;;;7.40;0.75;;;;;;;;;;5108840;28;20065;-62
2021/11/26 00:52:30;;;;;;;4.43;0.90;;;;;;;;;;5109298;28;20050;-62
2021/11/26 00:54:56;;;;;;;6.50;0.60;;;;;;;;;;5102443;27;20138;-63
2021/11/26 00:57:23;;;;;;;5.38;0.70;;;;;;;;;;5094233;27;20046;-62
2021/11/26 00:59:49;;;;;;;5.47;0.82;;;;;;;;;;5102077;27;20135;-62
2021/11/26 01:02:15;;;;;;;3.13;0.50;;;;;;;;;;5116827;27;20051;-63
2021/11/26 01:04:41;;;;;;;4.57;0.40;;;;;;;;;;5109769;28;20043;-62
2021/11/26 01:07:07;;;;;;;5.13;0.40;;;;;;;;;;5110464;28;20091;-62
2021/11/26 01:09:34;;;;;;;2.28;0.68;;;;;;;;;;5108008;28;20056;-62
2021/11/26 01:12:00;;;;;;;4.82;0.55;;;;;;;;;;5108575;27;20039;-62
2021/11/26 01:14:26;;;;;;;1.45;0.40;;;;;;;;;;5114310;27;20035;-62
2021/11/26 01:16:53;;;;;;;4.43;0.80;;;;;;;;;;5118068;27;20132;-62
2021/11/26 01:19:19;;;;;;;3.53;0.60;;;;;;;;;;5087166;28;20050;-62
2021/11/26 01:21:46;;;;;;;1.75;0.30;;;;;;;;;;5107658;28;20055;-63
2021/11/26 01:24:12;;;;;;;2.85;0.50;;;;;;;;;;5106701;28;20139;-63
2021/11/26 01:26:38;;;;;;;5.07;0.73;;;;;;;;;;5090566;28;20062;-62
2021/11/26 01:29:05;;;;;;;3.83;0.40;;;;;;;;;;5092757;28;20043;-62
2021/11/26 01:31:34;;;;;;;3.10;0.40;;;;;;;;;;5105888;28;20054;-63
2021/11/26 01:34:00;;;;;;;5.05;0.80;;;;;;;;;;5107562;28;20040;-63
2021/11/26 01:36:27;;;;;;;2.03;0.40;;;;;;;;;;5107257;28;20067;-63
2021/11/26 01:38:54;;;;;;;2.72;0.40;;;;;;;;;;5107871;28;20043;-62
2021/11/26 01:41:20;;;;;;;3.92;0.40;;;;;;;;;;5110167;28;20044;-63
2021/11/26 01:43:46;;;;;;;1.58;0.30;;;;;;;;;;5113502;28;20035;-62
2021/11/26 01:46:12;;;;;;;5.40;0.47;;;;;;;;;;5092660;28;20502;-63
2021/11/26 01:48:40;;;;;;;7.82;0.63;;;;;;;;;;5095739;28;20160;-63
2021/11/26 01:51:07;;;;;;;3.25;0.50;;;;;;;;;;5112604;27;20043;-62
2021/11/26 01:53:33;;;;;;;1.08;0.40;;;;;;;;;;5109078;28;20055;-63
2021/11/26 01:56:00;;;;;;;2.20;0.30;;;;;;;;;;5097141;28;20046;-62
2021/11/26 01:58:26;;;;;;;1.08;0.40;;;;;;;;;;5110212;28;20075;-62
2021/11/26 02:00:53;;;;;;;3.63;1.13;;;;;;;;;;5088948;28;20059;-62
2021/11/26 02:03:19;;;;;;;6.00;2.10;;;;;;;;;;5102552;27;20047;-62
2021/11/26 02:05:45;;;;;;;3.83;0.43;;;;;;;;;;5107249;27;20555;-63
2021/11/26 02:08:11;;;;;;;2.58;0.50;;;;;;;;;;5096339;28;20393;-63
2021/11/26 02:10:38;;;;;;;7.65;0.93;;;;;;;;;;5120130;27;20047;-63
2021/11/26 02:13:04;;;;;;;6.45;0.68;;;;;;;;;;5103080;27;20130;-63
2021/11/26 02:15:31;;;;;;;4.15;0.80;;;;;;;;;;5122904;27;20050;-63
2021/11/26 02:17:58;;;;;;;6.20;0.77;;;;;;;;;;5123396;27;20186;-63
2021/11/26 02:20:26;;;;;;;6.65;1.42;;;;;;;;;;5113200;27;20035;-63
2021/11/26 02:22:53;;;;;;;6.05;0.77;;;;;;;;;;5110258;27;20123;-62
2021/11/26 02:25:19;;;;;;;10.10;0.88;;;;;;;;;;5111348;27;20097;-62
2021/11/26 02:27:46;;;;;;;7.45;0.98;;;;;;;;;;5114193;27;20044;-62
2021/11/26 02:30:14;;;;;;;8.32;1.92;;;;;;;;;;5111857;27;20051;-63
2021/11/26 02:32:40;;;;;;;6.15;0.70;;;;;;;;;;5122230;27;20444;-62
2021/11/26 02:35:07;;;;;;;4.25;0.70;;;;;;;;;;5114098;27;20127;-62
2021/11/26 02:37:33;;;;;;;8.13;1.02;;;;;;;;;;5093351;28;20043;-62
2021/11/26 02:39:59;;;;;;;9.35;0.95;;;;;;;;;;5111200;27;20032;-62
2021/11/26 02:42:26;;;;;;;6.95;0.70;;;;;;;;;;5110064;27;20498;-62
2021/11/26 02:44:53;;;;;;;5.30;1.33;;;;;;;;;;5106371;27;20042;-62
2021/11/26 02:47:19;;;;;;;3.92;0.80;;;;;;;;;;5109640;27;20054;-63
2021/11/26 02:49:45;;;;;;;8.25;1.00;;;;;;;;;;5112827;27;20032;-62
2021/11/26 02:52:11;;;;;;;9.50;1.00;;;;;;;;;;5118152;27;20126;-62
2021/11/26 02:54:37;;;;;;;8.48;0.90;;;;;;;;;;5118983;27;20397;-62
2021/11/26 02:57:03;;;;;;;2.75;0.77;;;;;;;;;;5121358;27;20563;-63
2021/11/26 02:59:29;;;;;;;7.45;0.80;;;;;;;;;;5115383;27;20130;-63
2021/11/26 03:01:56;;;;;;;7.88;0.73;;;;;;;;;;5112588;27;20050;-62
2021/11/26 03:04:22;;;;;;;4.45;0.75;;;;;;;;;;5106619;27;20035;-63
2021/11/26 03:06:48;;;;;;;8.05;1.00;;;;;;;;;;5103685;27;20076;-63
2021/11/26 03:09:14;;;;;;;8.55;0.90;;;;;;;;;;5110113;27;20062;-62
2021/11/26 03:11:40;;;;;;;4.65;0.90;;;;;;;;;;5085687;28;20052;-63
2021/11/26 03:14:07;;;;;;;7.07;0.70;;;;;;;;;;5113575;27;20088;-63
2021/11/26 03:16:33;;;;;;;6.63;0.80;;;;;;;;;;5116839;27;20070;-62
2021/11/26 03:18:59;;;;;;;4.45;0.95;;;;;;;;;;5116681;27;20051;-63
2021/11/26 03:21:25;;;;;;;3.88;0.90;;;;;;;;;;5113484;27;20058;-62
2021/11/26 03:23:52;;;;;;;6.05;0.90;;;;;;;;;;5108684;27;20044;-63
2021/11/26 03:26:18;;;;;;;8.23;1.00;;;;;;;;;;5109669;27;20035;-62
2021/11/26 03:28:44;;;;;;;3.22;0.80;;;;;;;;;;5109929;27;20407;-63
2021/11/26 03:31:10;;;;;;;7.40;1.30;;;;;;;;;;5099185;27;20031;-63
2021/11/26 03:33:36;;;;;;;4.15;0.70;;;;;;;;;;5125210;27;20043;-63
2021/11/26 03:36:02;;;;;;;7.47;1.35;;;;;;;;;;5119278;27;20043;-62
2021/11/26 03:38:29;;;;;;;4.90;0.90;;;;;;;;;;5114512;27;20050;-63
2021/11/26 03:40:55;;;;;;;8.35;0.93;;;;;;;;;;5111814;27;20032;-62
2021/11/26 03:43:21;;;;;;;10.35;0.70;;;;;;;;;;5114719;27;20138;-63
2021/11/26 03:45:47;;;;;;;8.50;1.00;;;;;;;;;;5108041;27;20546;-63
2021/11/26 03:48:13;;;;;;;3.22;0.90;;;;;;;;;;5089960;27;20047;-63
2021/11/26 03:50:39;;;;;;;14.77;1.48;;;;;;;;;;5106872;27;20032;-63
2021/11/26 03:53:05;;;;;;;12.68;1.63;;;;;;;;;;5115003;27;20036;-62
2021/11/26 03:55:32;;;;;;;5.60;0.90;;;;;;;;;;5113220;27;20048;-63
2021/11/26 03:57:58;;;;;;;6.88;0.90;;;;;;;;;;5115010;27;20417;-63
2021/11/26 04:00:25;;;;;;;5.05;0.98;;;;;;;;;;5092950;27;20040;-63
2021/11/26 04:02:51;;;;;;;11.15;0.90;;;;;;;;;;5112976;27;20039;-63
2021/11/26 04:05:17;;;;;;;14.73;1.27;;;;;;;;;;5116390;27;20417;-62
2021/11/26 04:07:44;;;;;;;11.30;1.27;;;;;;;;;;5117450;27;20130;-63
2021/11/26 04:10:11;;;;;;;8.90;1.05;;;;;;;;;;5109515;27;20058;-63
2021/11/26 04:12:37;;;;;;;10.85;1.65;;;;;;;;;;5107678;27;20130;-62
2021/11/26 04:15:06;;;;;;;10.98;1.48;;;;;;;;;;5104161;27;20474;-62
2021/11/26 04:17:33;;;;;;;10.63;1.40;;;;;;;;;;5108871;27;20090;-63
2021/11/26 04:20:00;;;;;;;9.27;1.02;;;;;;;;;;5109575;27;20044;-62
2021/11/26 04:22:26;;;;;;;8.43;0.88;;;;;;;;;;5102774;27;20039;-62
2021/11/26 04:24:52;;;;;;;8.93;0.93;;;;;;;;;;5106070;27;20066;-62
2021/11/26 04:27:18;;;;;;;11.30;1.55;;;;;;;;;;5104429;27;20067;-63
2021/11/26 04:29:44;;;;;;;5.13;1.15;;;;;;;;;;5073159;28;20411;-63
2021/11/26 04:32:10;;;;;;;5.50;1.00;;;;;;;;;;5101216;27;20047;-62
2021/11/26 04:34:37;;;;;;;4.63;0.80;;;;;;;;;;5095783;27;20581;-62
2021/11/26 04:37:03;;;;;;;6.55;1.00;;;;;;;;;;5109330;27;20363;-62
2021/11/26 04:39:29;;;;;;;9.10;1.40;;;;;;;;;;5105233;27;20035;-62
2021/11/26 04:41:55;;;;;;;6.80;1.17;;;;;;;;;;5113325;27;20040;-62
2021/11/26 04:44:21;;;;;;;7.53;1.10;;;;;;;;;;5108534;27;20028;-62
2021/11/26 04:46:47;;;;;;;4.18;0.90;;;;;;;;;;5109364;27;20490;-62
2021/11/26 04:49:13;;;;;;;9.32;1.35;;;;;;;;;;5114291;27;20086;-63
2021/11/26 04:51:40;;;;;;;9.77;0.95;;;;;;;;;;5088985;28;20059;-62
2021/11/26 04:54:06;;;;;;;7.38;1.30;;;;;;;;;;5115106;27;20028;-62
2021/11/26 04:56:32;;;;;;;9.95;0.93;;;;;;;;;;5107597;27;20044;-62
2021/11/26 04:58:58;;;;;;;3.97;0.70;;;;;;;;;;5105857;27;20444;-62
2021/11/26 05:01:24;;;;;;;7.93;1.50;;;;;;;;;;5116080;27;20035;-62
2021/11/26 05:03:52;;;;;;;5.60;1.02;;;;;;;;;;5115754;27;20158;-62
2021/11/26 05:06:18;;;;;;;4.25;0.75;;;;;;;;;;5118463;27;20123;-63
2021/11/26 05:08:45;;;;;;;7.35;0.82;;;;;;;;;;5117243;27;20442;-63
2021/11/26 05:11:11;;;;;;;5.05;0.63;;;;;;;;;;5105278;27;20380;-62
2021/11/26 05:13:44;;;;;;;6.75;1.08;;;;;;;;;;5107160;27;20043;-62
2021/11/26 05:16:13;;;;;;;6.30;1.08;;;;;;;;;;5108615;27;20040;-62
2021/11/26 05:18:40;;;;;;;4.65;0.55;;;;;;;;;;5086825;28;20125;-62
2021/11/26 05:21:06;;;;;;;4.15;0.90;;;;;;;;;;5116066;28;20054;-62
2021/11/26 05:23:33;;;;;;;3.13;0.60;;;;;;;;;;5118909;27;20089;-62
2021/11/26 05:25:59;;;;;;;4.72;0.65;;;;;;;;;;5110896;28;20088;-62
2021/11/26 05:28:26;;;;;;;5.88;0.82;;;;;;;;;;5118028;28;20035;-62
2021/11/26 05:30:52;;;;;;;4.65;0.50;;;;;;;;;;5108688;28;20122;-62
2021/11/26 05:33:18;;;;;;;2.55;0.50;;;;;;;;;;5088676;28;20050;-62
2021/11/26 05:35:44;;;;;;;8.00;1.75;;;;;;;;;;5105003;28;20071;-62
2021/11/26 05:38:11;;;;;;;4.70;0.65;;;;;;;;;;5103199;28;20035;-62
2021/11/26 05:40:37;;;;;;;6.47;0.73;;;;;;;;;;5112113;28;20040;-63
2021/11/26 05:43:04;;;;;;;4.75;0.73;;;;;;;;;;5113244;28;20071;-62
2021/11/26 05:45:30;;;;;;;2.80;0.60;;;;;;;;;;5097889;28;20075;-62
2021/11/26 05:47:56;;;;;;;5.45;0.70;;;;;;;;;;5115448;28;20063;-62
2021/11/26 05:50:23;;;;;;;3.42;1.00;;;;;;;;;;5111329;28;20182;-63
2021/11/26 05:52:50;;;;;;;5.60;0.90;;;;;;;;;;5108167;28;20075;-62
2021/11/26 05:55:21;;;;;;;7.95;1.17;;;;;;;;;;5089078;28;20507;-64
2021/11/26 05:57:47;;;;;;;4.97;0.80;;;;;;;;;;5082044;28;20124;-62
2021/11/26 06:00:14;;;;;;;6.50;1.33;;;;;;;;;;5103443;28;20039;-62
2021/11/26 06:02:40;;;;;;;6.65;1.13;;;;;;;;;;5106181;28;20467;-63
2021/11/26 06:05:07;;;;;;;9.45;1.20;;;;;;;;;;5112364;28;20036;-62
2021/11/26 06:07:34;;;;;;;4.63;0.98;;;;;;;;;;5089208;28;20054;-62
2021/11/26 06:10:01;;;;;;;10.43;1.38;;;;;;;;;;5077006;28;20510;-62
2021/11/26 06:12:27;;;;;;;8.57;1.45;;;;;;;;;;5088793;28;20058;-62
2021/11/26 06:14:55;;;;;;;5.65;1.50;;;;;;;;;;5087682;28;20040;-62
2021/11/26 06:17:21;;;;;;;12.13;1.88;;;;;;;;;;5088853;28;20075;-63
2021/11/26 06:19:47;;;;;;;8.75;1.10;;;;;;;;;;5087868;28;20126;-63
2021/11/26 06:22:14;;;;;;;9.95;1.52;;;;;;;;;;5089783;28;20043;-63
2021/11/26 06:24:40;;;;;;;14.25;1.83;;;;;;;;;;5094043;28;20036;-63
2021/11/26 06:27:07;;;;;;;10.70;1.38;;;;;;;;;;5095809;28;20399;-63
2021/11/26 06:29:33;;;;;;;10.55;1.70;;;;;;;;;;5093619;28;20079;-62
2021/11/26 06:31:59;;;;;;;11.80;1.90;;;;;;;;;;5097048;28;20146;-63
2021/11/26 06:34:26;;;;;;;10.65;2.50;;;;;;;;;;5076885;28;20044;-62
2021/11/26 06:36:53;;;;;;;14.95;1.80;;;;;;;;;;5081625;28;20479;-62
2021/11/26 06:39:19;;;;;;;10.60;1.90;;;;;;;;;;5091819;28;20521;-63
2021/11/26 06:41:45;;;;;;;13.82;1.80;;;;;;;;;;5094611;28;20035;-62
2021/11/26 06:44:11;;;;;;;13.10;1.92;;;;;;;;;;5093967;28;20036;-63
2021/11/26 06:46:38;;;;;;;4.75;1.50;;;;;;;;;;5094459;28;20050;-62
2021/11/26 06:49:04;;;;;;;11.85;1.40;;;;;;;;;;5094661;28;20104;-63
2021/11/26 06:51:30;;;;;;;10.18;1.38;;;;;;;;;;5093735;28;20059;-63
2021/11/26 06:53:57;;;;;;;16.83;2.15;;;;;;;;;;5094133;28;20550;-63
2021/11/26 06:56:24;;;;;;;14.15;1.52;;;;;;;;;;5094244;28;20095;-63
2021/11/26 06:58:52;;;;;;;10.27;1.48;;;;;;;;;;5093563;28;20055;-63
2021/11/26 07:01:18;;;;;;;8.52;1.98;;;;;;;;;;5086206;28;20064;-62
2021/11/26 07:03:44;;;;;;;13.45;1.65;;;;;;;;;;5089133;28;20084;-63
2021/11/26 07:06:11;;;;;;;11.52;1.88;;;;;;;;;;5093077;28;20040;-65
2021/11/26 07:08:37;;;;;;;6.88;1.45;;;;;;;;;;5094351;28;20040;-63
2021/11/26 07:11:03;;;;;;;13.90;1.45;;;;;;;;;;5113888;28;20344;-63
2021/11/26 07:13:29;;;;;;;13.95;2.28;;;;;;;;;;5114579;28;20040;-63
2021/11/26 07:15:55;;;;;;;13.45;3.05;;;;;;;;;;5114292;28;20050;-63
2021/11/26 07:18:21;;;;;;;10.48;1.52;;;;;;;;;;5112955;28;20082;-63
2021/11/26 07:20:48;;;;;;;11.20;1.73;;;;;;;;;;5112759;28;20131;-63
2021/11/26 07:23:14;;;;;;;9.32;1.58;;;;;;;;;;5112958;28;20573;-63
2021/11/26 07:25:40;;;;;;;11.77;2.53;;;;;;;;;;5112615;28;20143;-63
2021/11/26 07:28:07;;;;;;;12.10;1.90;;;;;;;;;;5113100;28;20051;-66
2021/11/26 07:30:33;;;;;;;12.20;1.77;;;;;;;;;;5078478;28;20141;-64
2021/11/26 07:32:59;;;;;;;10.52;1.92;;;;;;;;;;5113163;28;20100;-64
2021/11/26 07:35:25;;;;;;;9.85;1.85;;;;;;;;;;5113051;28;20044;-64
2021/11/26 07:37:51;;;;;;;14.43;2.05;;;;;;;;;;5111887;28;20122;-64
2021/11/26 07:40:17;;;;;;;16.58;1.98;;;;;;;;;;5102735;28;20040;-64
2021/11/26 07:42:44;;;;;;;11.73;2.40;;;;;;;;;;5098134;28;20047;-65
2021/11/26 07:45:11;;;;;;;11.93;1.75;;;;;;;;;;5099406;27;20480;-64
2021/11/26 07:47:39;;;;;;;12.57;2.58;;;;;;;;;;5096936;27;20047;-64
2021/11/26 07:50:05;;;;;;;16.58;3.20;;;;;;;;;;5075341;28;20050;-64
2021/11/26 07:52:32;;;;;;;11.65;3.45;;;;;;;;;;5096614;28;20507;-63
2021/11/26 07:54:58;;;;;;;12.05;2.60;;;;;;;;;;5095758;28;20413;-64
2021/11/26 07:57:24;;;;;;;9.10;2.10;;;;;;;;;;5097676;28;20043;-63
2021/11/26 07:59:50;;;;;;;14.32;2.35;;;;;;;;;;5080171;28;20044;-64
2021/11/26 08:02:16;;;;;;;14.98;2.33;;;;;;;;;;5100298;27;20160;-63
2021/11/26 08:04:43;;;;;;;14.45;2.22;;;;;;;;;;5093525;28;20518;-64
2021/11/26 08:07:09;;;;;;;13.07;2.28;;;;;;;;;;5075532;28;20539;-63
2021/11/26 08:09:36;;;;;;;15.85;3.33;;;;;;;;;;5097500;28;20400;-63
2021/11/26 08:12:02;;;;;;;10.05;2.30;;;;;;;;;;5092742;28;20050;-63
2021/11/26 08:14:28;;;;;;;15.50;2.38;;;;;;;;;;5098382;28;20050;-63
2021/11/26 08:16:55;;;;;;;9.65;1.90;;;;;;;;;;5076953;28;20036;-63
2021/11/26 08:19:23;;;;;;;11.95;2.15;;;;;;;;;;5097168;28;20035;-63
2021/11/26 08:21:49;;;;;;;12.75;2.63;;;;;;;;;;5092567;28;20459;-63
2021/11/26 08:24:17;;;;;;;10.93;3.47;;;;;;;;;;5096262;28;20494;-63
2021/11/26 08:26:43;;;;;;;12.48;2.67;;;;;;;;;;5097098;28;20047;-64
2021/11/26 08:29:10;;;;;;;15.30;2.30;;;;;;;;;;5091690;28;20044;-72
2021/11/26 08:31:37;;;;;;;11.75;2.95;;;;;;;;;;5094282;28;20048;-69
2021/11/26 08:34:03;;;;;;;9.20;2.15;;;;;;;;;;5078934;28;20035;-70
2021/11/26 08:36:29;;;;;;;8.57;2.10;;;;;;;;;;5096270;28;20040;-71
2021/11/26 08:38:56;;;;;;;10.30;1.98;;;;;;;;;;5109125;28;20066;-71
2021/11/26 08:41:23;;;;;;;11.52;2.78;;;;;;;;;;5105977;28;20398;-70
2021/11/26 08:43:49;;;;;;;15.88;3.13;;;;;;;;;;5089241;27;20039;-70
2021/11/26 08:46:16;;;;;;;14.05;3.38;;;;;;;;;;5090947;28;20043;-71
2021/11/26 08:48:42;;;;;;;15.32;2.90;;;;;;;;;;5090335;28;20039;-70
2021/11/26 08:51:09;;;;;;;13.10;2.65;;;;;;;;;;5109272;27;20050;-70
2021/11/26 08:53:39;;;;;;;13.15;2.30;;;;;;;;;;5093224;28;20399;-70
2021/11/26 08:56:05;;;;;;;12.82;2.05;;;;;;;;;;5093690;28;20427;-70
2021/11/26 08:58:34;;;;;;;12.57;2.42;;;;;;;;;;5092518;28;20277;-70
2021/11/26 09:01:00;;;;;;;16.27;3.92;;;;;;;;;;5111469;28;20487;-70
2021/11/26 09:03:27;;;;;;;19.38;2.40;;;;;;;;;;5110750;28;20340;-70
2021/11/26 09:05:53;;;;;;;11.25;1.92;;;;;;;;;;5093597;28;20051;-70
2021/11/26 09:08:19;;;;;;;21.67;3.70;;;;;;;;;;5111326;28;20050;-70
2021/11/26 09:10:46;;;;;;;13.65;2.63;;;;;;;;;;5110684;28;20051;-70
2021/11/26 09:13:13;;;;;;;17.63;2.28;;;;;;;;;;5111529;28;20065;-70
2021/11/26 09:15:39;;;;;;;12.50;2.90;;;;;;;;;;5093063;28;20046;-70
2021/11/26 09:18:06;;;;;;;15.20;3.42;;;;;;;;;;5110855;28;20035;-69
2021/11/26 09:20:34;;;;;;;19.33;2.60;;;;;;;;;;5111779;28;20071;-69
2021/11/26 09:23:00;;;;;;;14.30;3.30;;;;;;;;;;5093729;28;20118;-69
2021/11/26 09:25:27;;;;;;;15.20;3.00;;;;;;;;;;5110466;28;20089;-69
2021/11/26 09:27:53;;;;;;;9.90;2.60;;;;;;;;;;5110473;28;20048;-70
2021/11/26 09:30:20;;;;;;;14.38;3.13;;;;;;;;;;5111234;28;20086;-70
2021/11/26 09:32:47;;;;;;;14.57;3.92;;;;;;;;;;5092410;28;20044;-70
2021/11/26 09:35:13;;;;;;;12.20;2.45;;;;;;;;;;5111205;28;20047;-70
2021/11/26 09:37:40;;;;;;;10.30;2.17;;;;;;;;;;5111867;28;20058;-70
2021/11/26 09:40:07;;;;;;;11.88;2.90;;;;;;;;;;5110286;28;20044;-70
2021/11/26 09:42:33;;;;;;;11.35;2.20;;;;;;;;;;5092877;28;20192;-69
2021/11/26 09:45:00;;;;;;;13.80;2.63;;;;;;;;;;5093021;28;20039;-69
2021/11/26 09:47:27;;;;;;;20.00;3.60;;;;;;;;;;5092991;28;20402;-69
2021/11/26 09:49:54;;;;;;;10.40;2.67;;;;;;;;;;5111372;28;20039;-68
2021/11/26 09:52:20;;;;;;;12.13;2.50;;;;;;;;;;5111595;28;20084;-68
2021/11/26 09:54:47;;;;;;;15.55;2.80;;;;;;;;;;5092763;28;20395;-68
2021/11/26 09:57:14;;;;;;;14.48;2.78;;;;;;;;;;5089705;28;20051;-68
2021/11/26 09:59:42;;;;;;;11.80;3.22;;;;;;;;;;5103925;28;20112;-67
2021/11/26 10:02:09;;;;;;;12.88;2.58;;;;;;;;;;5115808;28;20050;-67
2021/11/26 10:04:35;;;;;;;18.02;2.78;;;;;;;;;;5096914;28;20040;-67
2021/11/26 10:07:03;;;;;;;13.95;2.67;;;;;;;;;;5113093;28;20358;-68
2021/11/26 10:09:29;;;;;;;10.30;2.67;;;;;;;;;;5115350;28;20113;-65
2021/11/26 10:11:56;;;;;;;16.00;4.57;;;;;;;;;;5115051;28;20048;-66
2021/11/26 10:14:25;;;;;;;15.25;4.00;;;;;;;;;;5075631;28;20093;-65
2021/11/26 10:16:54;;;;;;;17.25;3.70;;;;;;;;;;5107645;28;20043;-66
2021/11/26 10:19:34;;;;;;;14.80;3.22;;;;;;;;;;5115291;27;20035;-64
2021/11/26 10:22:00;;;;;;;16.05;2.40;;;;;;;;;;5114590;28;20096;-64
2021/11/26 10:24:26;;;;;;;15.38;3.33;;;;;;;;;;5096958;28;20397;-64
2021/11/26 10:26:53;;;;;;;12.20;2.88;;;;;;;;;;5097220;28;20454;-65
2021/11/26 10:29:33;;;;;;;14.82;3.00;;;;;;;;;;5096129;28;20129;-65
2021/11/26 10:32:05;;;;;;;13.20;2.78;;;;;;;;;;5115104;28;20044;-66
2021/11/26 10:34:32;;;;;;;15.15;2.70;;;;;;;;;;5114498;28;20453;-71
2021/11/26 10:36:58;;;;;;;13.02;2.72;;;;;;;;;;5095779;28;20039;-65
2021/11/26 10:39:25;;;;;;;17.02;2.67;;;;;;;;;;5114986;28;20042;-65
2021/11/26 10:41:54;;;;;;;21.23;4.70;;;;;;;;;;5114206;28;20054;-71
2021/11/26 10:44:28;;;;;;;17.58;3.38;;;;;;;;;;5096448;28;20478;-66
2021/11/26 10:47:09;;;;;;;9.48;2.30;;;;;;;;;;5114554;28;20059;-66
2021/11/26 10:49:45;;;;;;;18.73;2.70;;;;;;;;;;5095713;28;20040;-66
2021/11/26 10:59:38;;;;;;;16.05;2.78;;;;;;;;;;5096338;28;20055;-66
2021/11/26 11:02:04;;;;;;;14.70;3.47;;;;;;;;;;5113686;28;20394;-66
2021/11/26 11:04:31;;;;;;;12.82;2.97;;;;;;;;;;5113415;28;20126;-66
2021/11/26 11:06:58;;;;;;;16.73;4.50;;;;;;;;;;5113990;28;20115;-66
2021/11/26 11:09:25;;;;;;;13.98;3.00;;;;;;;;;;5112829;28;20411;-66
2021/11/26 11:11:53;;;;;;;15.10;4.05;;;;;;;;;;5095193;28;20055;-66
2021/11/26 11:14:24;;;;;;;12.50;2.55;;;;;;;;;;5114097;28;20476;-66
2021/11/26 11:16:51;;;;;;;10.35;3.05;;;;;;;;;;5095719;28;20543;-66
2021/11/26 11:19:17;;;;;;;9.63;2.47;;;;;;;;;;5113659;28;20067;-66
2021/11/26 11:21:44;;;;;;;12.40;2.67;;;;;;;;;;5114262;28;20434;-66
2021/11/26 11:24:11;;;;;;;11.27;3.03;;;;;;;;;;5113161;28;20040;-66
2021/11/26 11:26:40;;;;;;;14.55;2.85;;;;;;;;;;5095032;28;20108;-65
2021/11/26 11:29:07;;;;;;;10.20;3.17;;;;;;;;;;5095883;28;20455;-72
2021/11/26 11:31:33;;;;;;;8.57;2.15;;;;;;;;;;5098856;28;20035;-63
2021/11/26 11:34:00;;;;;;;15.30;3.13;;;;;;;;;;5113891;28;20044;-63
2021/11/26 11:36:26;;;;;;;13.40;3.28;;;;;;;;;;5095189;28;20081;-63
2021/11/26 11:38:59;;;;;;;17.70;2.97;;;;;;;;;;5113230;28;20043;-63
2021/11/26 11:41:25;;;;;;;14.05;3.35;;;;;;;;;;5113543;28;20050;-63
2021/11/26 11:43:52;;;;;;;13.95;3.45;;;;;;;;;;5113513;28;20039;-64
2021/11/26 11:46:19;;;;;;;14.43;3.70;;;;;;;;;;5112814;28;20352;-63
2021/11/26 11:48:51;;;;;;;18.65;5.03;;;;;;;;;;5095457;28;20546;-63
2021/11/26 11:51:21;;;;;;;17.38;3.88;;;;;;;;;;5094840;28;20051;-64
2021/11/26 11:53:47;;;;;;;14.18;3.97;;;;;;;;;;5111486;28;20422;-69
2021/11/26 11:56:15;;;;;;;18.27;3.92;;;;;;;;;;5078288;28;20058;-63
2021/11/26 11:58:47;;;;;;;19.50;4.80;;;;;;;;;;5111735;28;20055;-62
2021/11/26 12:01:21;;;;;;;18.70;5.20;;;;;;;;;;5101723;28;20036;-62
2021/11/26 12:03:47;;;;;;;18.85;6.13;;;;;;;;;;5097356;27;20040;-63
2021/11/26 12:06:14;;;;;;;16.17;5.38;;;;;;;;;;5101622;28;20096;-62
2021/11/26 12:08:52;;;;;;;20.10;5.03;;;;;;;;;;5087959;28;20036;-63
2021/11/26 12:11:28;;;;;;;19.38;5.30;;;;;;;;;;5087686;28;20103;-63
2021/11/26 12:14:01;;;;;;;16.42;6.10;;;;;;;;;;5085787;28;20582;-63
2021/11/26 12:16:29;;;;;;;21.65;5.43;;;;;;;;;;5100647;28;20062;-63
2021/11/26 12:18:55;;;;;;;16.35;4.50;;;;;;;;;;5103184;28;20071;-63
2021/11/26 12:21:29;;;;;;;19.40;5.28;;;;;;;;;;5108128;27;20421;-63
2021/11/26 12:26:43;;;;;;;15.73;5.85;;;;;;;;;;5111336;27;20047;-63
2021/11/26 12:29:12;;;;;;;14.60;4.90;;;;;;;;;;5106541;27;20100;-64
2021/11/26 12:31:39;;;;;;;20.15;5.82;;;;;;;;;;5108359;27;20039;-63
2021/11/26 12:34:06;;;;;;;24.70;6.22;;;;;;;;;;5101965;27;20471;-62
2021/11/26 12:36:41;;;;;;;24.95;5.05;;;;;;;;;;5094110;28;20042;-77
2021/11/26 12:39:10;;;;;;;16.67;5.32;;;;;;;;;;5081271;28;20100;-72
2021/11/26 12:41:37;;;;;;;15.98;4.70;;;;;;;;;;5084866;28;20047;-63
2021/11/26 12:44:04;;;;;;;15.63;4.18;;;;;;;;;;5112472;27;20057;-63
2021/11/26 12:46:32;;;;;;;12.93;4.63;;;;;;;;;;5113417;27;20092;-63
2021/11/26 12:49:29;;;;;;;12.98;4.32;;;;;;;;;;5109050;27;20437;-63
2021/11/26 12:51:59;;;;;;;14.93;4.60;;;;;;;;;;5085641;27;20101;-62
2021/11/26 12:54:28;;;;;;;17.50;4.28;;;;;;;;;;5099292;28;20126;-63
2021/11/26 12:56:55;;;;;;;16.02;4.28;;;;;;;;;;5090824;27;21974;-63
2021/11/26 12:59:31;;;;;;;12.77;4.63;;;;;;;;;;5098467;28;20036;-63
2021/11/26 13:01:58;;;;;;;13.02;4.78;;;;;;;;;;5106738;27;20048;-63
2021/11/26 13:04:24;;;;;;;17.65;4.72;;;;;;;;;;5107646;27;20083;-63
2021/11/26 13:07:00;;;;;;;11.15;4.05;;;;;;;;;;5107178;28;20104;-63
2021/11/26 13:09:26;;;;;;;8.55;3.10;;;;;;;;;;5101808;28;20048;-63
2021/11/26 13:11:52;;;;;;;12.45;4.07;;;;;;;;;;5099364;28;20042;-63
2021/11/26 13:14:19;;;;;;;13.52;3.83;;;;;;;;;;5102267;28;20495;-64
2021/11/26 13:16:45;;;;;;;11.15;3.45;;;;;;;;;;5105960;27;20114;-66
2021/11/26 13:19:18;;;;;;;13.25;4.15;;;;;;;;;;5095986;28;20406;-64
2021/11/26 13:21:44;;;;;;;13.77;3.55;;;;;;;;;;5079617;28;20058;-64
2021/11/26 13:24:10;;;;;;;14.00;3.72;;;;;;;;;;5092394;28;20392;-65
2021/11/26 13:26:37;;;;;;;12.07;4.20;;;;;;;;;;5092999;28;20079;-63
2021/11/26 13:29:03;;;;;;;13.98;3.83;;;;;;;;;;5075918;28;20306;-64
2021/11/26 13:31:30;;;;;;;15.32;4.75;;;;;;;;;;5099065;28;20118;-65
2021/11/26 13:33:59;;;;;;;14.77;4.45;;;;;;;;;;5093411;28;20051;-64
2021/11/26 13:36:27;;;;;;;12.85;5.50;;;;;;;;;;5076872;28;20052;-64
2021/11/26 13:38:56;;;;;;;14.70;4.95;;;;;;;;;;5074185;28;20090;-62
2021/11/26 13:41:22;;;;;;;15.40;5.07;;;;;;;;;;5091727;28;20138;-64
2021/11/26 13:43:50;;;;;;;13.25;5.20;;;;;;;;;;5095588;28;20107;-64
2021/11/26 13:46:31;;;;;;;21.58;6.65;;;;;;;;;;5093516;28;20040;-64
2021/11/26 13:49:03;;;;;;;29.42;7.32;;;;;;;;;;5092073;28;20044;-64
2021/11/26 13:51:33;;;;;;;12.77;5.72;;;;;;;;;;5102364;28;20131;-63
2021/11/26 13:54:06;;;;;;;13.32;5.50;;;;;;;;;;5099546;28;20044;-63
2021/11/26 13:56:34;;;;;;;12.27;7.03;;;;;;;;;;5096444;28;20059;-63
2021/11/26 13:59:03;;;;;;;18.58;6.90;;;;;;;;;;5088014;28;20075;-69
2021/11/26 14:01:30;;;;;;;14.23;7.03;;;;;;;;;;5081489;28;20071;-66
2021/11/26 14:04:02;;;;;;;13.60;6.10;;;;;;;;;;5101325;28;20481;-65
2021/11/26 14:06:30;;;;;;;21.08;7.15;;;;;;;;;;5100663;28;20403;-69
2021/11/26 14:08:57;;;;;;;14.27;6.70;;;;;;;;;;5103559;28;20052;-65
2021/11/26 14:11:42;;;;;;;13.57;5.65;;;;;;;;;;5102125;28;20414;-65
2021/11/26 14:14:10;;;;;;;12.80;6.93;;;;;;;;;;5106970;28;20204;-65
2021/11/26 14:16:47;;;;;;;17.67;6.35;;;;;;;;;;5105762;28;20040;-65
2021/11/26 14:19:15;;;;;;;15.80;7.50;;;;;;;;;;5104673;28;20067;-65
2021/11/26 14:21:51;;;;;;;20.98;7.97;;;;;;;;;;5083965;28;20050;-65
2021/11/26 14:24:18;;;;;;;13.00;7.20;;;;;;;;;;5106118;28;20160;-64
2021/11/26 14:26:49;;;;;;;15.90;6.63;;;;;;;;;;5093799;28;20043;-64
2021/11/26 14:29:15;;;;;;;9.57;5.50;;;;;;;;;;5083566;28;20066;-64
2021/11/26 14:31:42;;;;;;;13.43;7.03;;;;;;;;;;5086804;28;20118;-64
2021/11/26 14:34:10;;;;;;;13.73;6.10;;;;;;;;;;5088063;28;20088;-64
2021/11/26 14:36:37;;;;;;;12.57;5.90;;;;;;;;;;5105197;28;20473;-64
2021/11/26 14:39:04;;;;;;;7.32;4.63;;;;;;;;;;5087001;28;20066;-64
2021/11/26 14:41:31;;;;;;;10.75;5.57;;;;;;;;;;5105339;28;20043;-64
2021/11/26 14:44:06;;;;;;;16.65;7.00;;;;;;;;;;5114669;28;20043;-63
2021/11/26 14:46:33;;;;;;;9.75;5.47;;;;;;;;;;5109781;27;20413;-75